sensor_id;sensor_type;location;lat;lon;timestamp;P1;durP1;ratioP1;P2;durP2;ratioP2
18425;SDS011;9340;48.756;9.226;2022-12-07T00:01:24;6.63;;;6.03;;
18425;SDS011;9340;48.756;9.226;2022-12-07T00:03:53;6.93;;;6.10;;
18425;SDS011;9340;48.756;9.226;2022-12-07T00:06:23;6.83;;;6.10;;
18425;SDS011;9340;48.756;9.226;2022-12-07T00:08:50;6.40;;;5.77;;
18425;SDS011;9340;48.756;9.226;2022-12-07T00:11:17;6.17;;;5.57;;
18425;SDS011;9340;48.756;9.226;2022-12-07T00:13:50;6.03;;;5.43;;
18425;SDS011;9340;48.756;9.226;2022-12-07T00:16:19;6.67;;;6.07;;
18425;SDS011;9340;48.756;9.226;2022-12-07T00:18:47;6.67;;;6.00;;
18425;SDS011;9340;48.756;9.226;2022-12-07T00:21:14;7.37;;;6.67;;
18425;SDS011;9340;48.756;9.226;2022-12-07T00:23:44;9.13;;;6.33;;
18425;SDS011;9340;48.756;9.226;2022-12-07T00:26:13;7.93;;;5.90;;
18425;SDS011;9340;48.756;9.226;2022-12-07T00:28:41;7.50;;;6.80;;
18425;SDS011;9340;48.756;9.226;2022-12-07T00:31:12;6.80;;;6.20;;
18425;SDS011;9340;48.756;9.226;2022-12-07T00:33:39;6.77;;;6.07;;
18425;SDS011;9340;48.756;9.226;2022-12-07T00:36:07;6.90;;;6.20;;
18425;SDS011;9340;48.756;9.226;2022-12-07T00:38:36;9.07;;;7.67;;
18425;SDS011;9340;48.756;9.226;2022-12-07T00:41:06;7.33;;;6.63;;
18425;SDS011;9340;48.756;9.226;2022-12-07T00:43:35;7.97;;;7.17;;
18425;SDS011;9340;48.756;9.226;2022-12-07T00:46:02;7.73;;;7.03;;
18425;SDS011;9340;48.756;9.226;2022-12-07T00:48:29;10.67;;;7.23;;
18425;SDS011;9340;48.756;9.226;2022-12-07T00:50:56;7.53;;;6.83;;
18425;SDS011;9340;48.756;9.226;2022-12-07T00:53:23;7.80;;;7.03;;
18425;SDS011;9340;48.756;9.226;2022-12-07T00:55:51;7.67;;;6.87;;
18425;SDS011;9340;48.756;9.226;2022-12-07T00:58:20;7.33;;;6.63;;
18425;SDS011;9340;48.756;9.226;2022-12-07T01:00:46;7.70;;;6.97;;
18425;SDS011;9340;48.756;9.226;2022-12-07T01:03:14;8.30;;;7.40;;
18425;SDS011;9340;48.756;9.226;2022-12-07T01:05:48;8.63;;;7.27;;
18425;SDS011;9340;48.756;9.226;2022-12-07T01:08:16;8.37;;;7.50;;
18425;SDS011;9340;48.756;9.226;2022-12-07T01:10:43;8.70;;;7.80;;
18425;SDS011;9340;48.756;9.226;2022-12-07T01:13:10;7.43;;;6.73;;
18425;SDS011;9340;48.756;9.226;2022-12-07T01:15:39;7.53;;;6.73;;
18425;SDS011;9340;48.756;9.226;2022-12-07T01:18:07;8.10;;;7.27;;
18425;SDS011;9340;48.756;9.226;2022-12-07T01:20:35;7.87;;;7.07;;
18425;SDS011;9340;48.756;9.226;2022-12-07T01:23:02;8.17;;;7.27;;
18425;SDS011;9340;48.756;9.226;2022-12-07T01:25:29;9.07;;;7.47;;
18425;SDS011;9340;48.756;9.226;2022-12-07T01:27:56;8.80;;;7.40;;
18425;SDS011;9340;48.756;9.226;2022-12-07T01:30:23;8.33;;;7.53;;
18425;SDS011;9340;48.756;9.226;2022-12-07T01:32:51;7.97;;;7.17;;
18425;SDS011;9340;48.756;9.226;2022-12-07T01:35:18;9.67;;;8.00;;
18425;SDS011;9340;48.756;9.226;2022-12-07T01:37:45;8.70;;;7.80;;
18425;SDS011;9340;48.756;9.226;2022-12-07T01:40:12;8.50;;;7.60;;
18425;SDS011;9340;48.756;9.226;2022-12-07T01:42:39;9.47;;;7.70;;
18425;SDS011;9340;48.756;9.226;2022-12-07T01:48:12;9.27;;;8.20;;
18425;SDS011;9340;48.756;9.226;2022-12-07T01:50:44;9.63;;;8.70;;
18425;SDS011;9340;48.756;9.226;2022-12-07T01:53:14;10.03;;;8.27;;
18425;SDS011;9340;48.756;9.226;2022-12-07T01:55:44;10.83;;;8.07;;
18425;SDS011;9340;48.756;9.226;2022-12-07T01:58:13;11.07;;;9.40;;
18425;SDS011;9340;48.756;9.226;2022-12-07T02:00:42;8.57;;;7.03;;
18425;SDS011;9340;48.756;9.226;2022-12-07T02:03:11;9.47;;;8.03;;
18425;SDS011;9340;48.756;9.226;2022-12-07T02:05:42;9.70;;;8.03;;
18425;SDS011;9340;48.756;9.226;2022-12-07T02:08:11;8.83;;;7.90;;
18425;SDS011;9340;48.756;9.226;2022-12-07T02:10:39;8.80;;;7.83;;
18425;SDS011;9340;48.756;9.226;2022-12-07T02:13:08;8.23;;;7.43;;
18425;SDS011;9340;48.756;9.226;2022-12-07T02:15:41;9.20;;;8.23;;
18425;SDS011;9340;48.756;9.226;2022-12-07T02:18:22;9.83;;;8.30;;
18425;SDS011;9340;48.756;9.226;2022-12-07T02:20:56;8.17;;;7.33;;
18425;SDS011;9340;48.756;9.226;2022-12-07T02:23:54;9.47;;;8.37;;
18425;SDS011;9340;48.756;9.226;2022-12-07T02:27:07;10.83;;;8.30;;
18425;SDS011;9340;48.756;9.226;2022-12-07T02:29:52;9.13;;;7.97;;
18425;SDS011;9340;48.756;9.226;2022-12-07T02:32:26;8.93;;;8.03;;
18425;SDS011;9340;48.756;9.226;2022-12-07T02:34:58;8.63;;;7.37;;
18425;SDS011;9340;48.756;9.226;2022-12-07T02:37:33;11.33;;;8.40;;
18425;SDS011;9340;48.756;9.226;2022-12-07T02:40:06;9.20;;;8.30;;
18425;SDS011;9340;48.756;9.226;2022-12-07T02:42:45;9.73;;;8.30;;
18425;SDS011;9340;48.756;9.226;2022-12-07T02:45:17;9.10;;;7.60;;
18425;SDS011;9340;48.756;9.226;2022-12-07T02:47:46;9.07;;;7.80;;
18425;SDS011;9340;48.756;9.226;2022-12-07T02:50:16;9.23;;;8.30;;
18425;SDS011;9340;48.756;9.226;2022-12-07T02:52:45;11.47;;;7.93;;
18425;SDS011;9340;48.756;9.226;2022-12-07T02:55:12;10.27;;;7.60;;
18425;SDS011;9340;48.756;9.226;2022-12-07T02:57:47;8.03;;;7.00;;
18425;SDS011;9340;48.756;9.226;2022-12-07T03:00:36;9.97;;;7.60;;
18425;SDS011;9340;48.756;9.226;2022-12-07T03:03:10;8.33;;;7.50;;
18425;SDS011;9340;48.756;9.226;2022-12-07T03:05:53;8.53;;;7.37;;
18425;SDS011;9340;48.756;9.226;2022-12-07T03:08:38;8.50;;;7.60;;
18425;SDS011;9340;48.756;9.226;2022-12-07T03:11:12;8.83;;;7.47;;
18425;SDS011;9340;48.756;9.226;2022-12-07T03:13:41;8.50;;;7.13;;
18425;SDS011;9340;48.756;9.226;2022-12-07T03:16:17;8.20;;;7.17;;
18425;SDS011;9340;48.756;9.226;2022-12-07T03:18:47;9.53;;;7.77;;
18425;SDS011;9340;48.756;9.226;2022-12-07T03:21:18;8.00;;;6.87;;
18425;SDS011;9340;48.756;9.226;2022-12-07T03:23:51;8.57;;;7.23;;
18425;SDS011;9340;48.756;9.226;2022-12-07T03:26:24;7.67;;;6.57;;
18425;SDS011;9340;48.756;9.226;2022-12-07T03:28:58;8.27;;;7.47;;
18425;SDS011;9340;48.756;9.226;2022-12-07T03:31:30;8.63;;;7.77;;
18425;SDS011;9340;48.756;9.226;2022-12-07T03:34:02;8.77;;;7.43;;
18425;SDS011;9340;48.756;9.226;2022-12-07T03:36:35;8.60;;;7.70;;
18425;SDS011;9340;48.756;9.226;2022-12-07T03:39:09;9.67;;;7.80;;
18425;SDS011;9340;48.756;9.226;2022-12-07T03:41:42;10.93;;;7.87;;
18425;SDS011;9340;48.756;9.226;2022-12-07T03:44:10;7.97;;;7.17;;
18425;SDS011;9340;48.756;9.226;2022-12-07T03:46:41;8.70;;;7.80;;
18425;SDS011;9340;48.756;9.226;2022-12-07T03:49:12;8.10;;;7.30;;
18425;SDS011;9340;48.756;9.226;2022-12-07T03:51:50;8.37;;;7.50;;
18425;SDS011;9340;48.756;9.226;2022-12-07T03:54:22;7.53;;;6.83;;
18425;SDS011;9340;48.756;9.226;2022-12-07T03:56:52;7.77;;;6.93;;
18425;SDS011;9340;48.756;9.226;2022-12-07T03:59:21;7.77;;;6.77;;
18425;SDS011;9340;48.756;9.226;2022-12-07T04:01:52;8.03;;;6.90;;
18425;SDS011;9340;48.756;9.226;2022-12-07T04:04:20;7.57;;;6.53;;
18425;SDS011;9340;48.756;9.226;2022-12-07T04:06:48;8.33;;;7.37;;
18425;SDS011;9340;48.756;9.226;2022-12-07T04:09:15;8.70;;;7.90;;
18425;SDS011;9340;48.756;9.226;2022-12-07T04:11:43;8.40;;;7.50;;
18425;SDS011;9340;48.756;9.226;2022-12-07T04:14:10;7.33;;;6.30;;
18425;SDS011;9340;48.756;9.226;2022-12-07T04:16:46;8.03;;;7.23;;
18425;SDS011;9340;48.756;9.226;2022-12-07T04:19:15;8.37;;;6.73;;
18425;SDS011;9340;48.756;9.226;2022-12-07T04:21:44;8.90;;;7.50;;
18425;SDS011;9340;48.756;9.226;2022-12-07T04:24:11;8.03;;;7.10;;
18425;SDS011;9340;48.756;9.226;2022-12-07T04:26:39;9.17;;;7.30;;
18425;SDS011;9340;48.756;9.226;2022-12-07T04:29:06;7.50;;;6.70;;
18425;SDS011;9340;48.756;9.226;2022-12-07T04:31:33;8.17;;;7.30;;
18425;SDS011;9340;48.756;9.226;2022-12-07T04:34:00;8.83;;;6.83;;
18425;SDS011;9340;48.756;9.226;2022-12-07T04:36:29;10.30;;;8.23;;
18425;SDS011;9340;48.756;9.226;2022-12-07T04:38:56;9.47;;;7.30;;
18425;SDS011;9340;48.756;9.226;2022-12-07T04:41:23;8.60;;;7.27;;
18425;SDS011;9340;48.756;9.226;2022-12-07T04:43:53;7.23;;;6.53;;
18425;SDS011;9340;48.756;9.226;2022-12-07T04:46:21;7.17;;;5.70;;
18425;SDS011;9340;48.756;9.226;2022-12-07T04:48:48;8.57;;;6.67;;
18425;SDS011;9340;48.756;9.226;2022-12-07T04:51:15;11.10;;;6.83;;
18425;SDS011;9340;48.756;9.226;2022-12-07T04:53:48;7.90;;;6.40;;
18425;SDS011;9340;48.756;9.226;2022-12-07T04:56:15;7.23;;;6.13;;
18425;SDS011;9340;48.756;9.226;2022-12-07T04:58:43;8.80;;;7.40;;
18425;SDS011;9340;48.756;9.226;2022-12-07T05:01:11;10.13;;;7.33;;
18425;SDS011;9340;48.756;9.226;2022-12-07T05:03:39;9.47;;;8.03;;
18425;SDS011;9340;48.756;9.226;2022-12-07T05:06:06;8.30;;;6.93;;
18425;SDS011;9340;48.756;9.226;2022-12-07T05:08:33;7.83;;;7.10;;
18425;SDS011;9340;48.756;9.226;2022-12-07T05:11:03;8.43;;;7.03;;
18425;SDS011;9340;48.756;9.226;2022-12-07T05:13:30;8.03;;;6.93;;
18425;SDS011;9340;48.756;9.226;2022-12-07T05:15:57;7.13;;;6.43;;
18425;SDS011;9340;48.756;9.226;2022-12-07T05:18:25;7.80;;;6.90;;
18425;SDS011;9340;48.756;9.226;2022-12-07T05:20:52;8.70;;;6.77;;
18425;SDS011;9340;48.756;9.226;2022-12-07T05:23:19;8.37;;;7.03;;
18425;SDS011;9340;48.756;9.226;2022-12-07T05:25:46;7.57;;;5.83;;
18425;SDS011;9340;48.756;9.226;2022-12-07T05:28:14;6.40;;;5.70;;
18425;SDS011;9340;48.756;9.226;2022-12-07T05:30:41;5.63;;;5.10;;
18425;SDS011;9340;48.756;9.226;2022-12-07T05:33:08;7.70;;;6.90;;
18425;SDS011;9340;48.756;9.226;2022-12-07T05:35:35;7.23;;;6.13;;
18425;SDS011;9340;48.756;9.226;2022-12-07T05:38:02;9.47;;;7.10;;
18425;SDS011;9340;48.756;9.226;2022-12-07T05:40:29;9.43;;;7.80;;
18425;SDS011;9340;48.756;9.226;2022-12-07T05:42:56;7.60;;;6.90;;
18425;SDS011;9340;48.756;9.226;2022-12-07T05:45:24;9.03;;;6.67;;
18425;SDS011;9340;48.756;9.226;2022-12-07T05:47:51;8.23;;;6.60;;
18425;SDS011;9340;48.756;9.226;2022-12-07T05:50:18;6.93;;;5.53;;
18425;SDS011;9340;48.756;9.226;2022-12-07T05:52:45;6.20;;;4.87;;
18425;SDS011;9340;48.756;9.226;2022-12-07T05:55:12;8.10;;;5.57;;
18425;SDS011;9340;48.756;9.226;2022-12-07T05:57:40;6.97;;;5.83;;
18425;SDS011;9340;48.756;9.226;2022-12-07T06:00:28;7.67;;;6.03;;
18425;SDS011;9340;48.756;9.226;2022-12-07T06:02:54;7.97;;;6.00;;
18425;SDS011;9340;48.756;9.226;2022-12-07T06:05:21;7.20;;;6.30;;
18425;SDS011;9340;48.756;9.226;2022-12-07T06:07:48;5.87;;;5.27;;
18425;SDS011;9340;48.756;9.226;2022-12-07T06:10:15;6.77;;;6.07;;
18425;SDS011;9340;48.756;9.226;2022-12-07T06:12:42;7.73;;;6.50;;
18425;SDS011;9340;48.756;9.226;2022-12-07T06:15:10;8.33;;;7.27;;
18425;SDS011;9340;48.756;9.226;2022-12-07T06:17:39;7.53;;;6.07;;
18425;SDS011;9340;48.756;9.226;2022-12-07T06:20:07;6.43;;;5.47;;
18425;SDS011;9340;48.756;9.226;2022-12-07T06:22:34;6.40;;;5.13;;
18425;SDS011;9340;48.756;9.226;2022-12-07T06:25:01;6.30;;;5.53;;
18425;SDS011;9340;48.756;9.226;2022-12-07T06:27:29;6.67;;;5.20;;
18425;SDS011;9340;48.756;9.226;2022-12-07T06:29:57;5.30;;;4.80;;
18425;SDS011;9340;48.756;9.226;2022-12-07T06:32:24;6.23;;;5.63;;
18425;SDS011;9340;48.756;9.226;2022-12-07T06:34:53;6.40;;;5.17;;
18425;SDS011;9340;48.756;9.226;2022-12-07T06:37:19;7.43;;;4.90;;
18425;SDS011;9340;48.756;9.226;2022-12-07T06:39:46;7.97;;;6.23;;
18425;SDS011;9340;48.756;9.226;2022-12-07T06:42:13;5.77;;;5.17;;
18425;SDS011;9340;48.756;9.226;2022-12-07T06:44:40;5.37;;;4.53;;
18425;SDS011;9340;48.756;9.226;2022-12-07T06:47:07;5.90;;;4.80;;
18425;SDS011;9340;48.756;9.226;2022-12-07T06:49:36;6.60;;;5.37;;
18425;SDS011;9340;48.756;9.226;2022-12-07T06:52:04;5.63;;;4.40;;
18425;SDS011;9340;48.756;9.226;2022-12-07T06:54:31;5.60;;;4.37;;
18425;SDS011;9340;48.756;9.226;2022-12-07T06:56:58;7.17;;;5.67;;
18425;SDS011;9340;48.756;9.226;2022-12-07T06:59:25;7.30;;;6.60;;
18425;SDS011;9340;48.756;9.226;2022-12-07T07:01:52;9.93;;;6.60;;
18425;SDS011;9340;48.756;9.226;2022-12-07T07:04:19;6.47;;;5.73;;
18425;SDS011;9340;48.756;9.226;2022-12-07T07:06:46;6.70;;;6.00;;
18425;SDS011;9340;48.756;9.226;2022-12-07T07:09:14;6.73;;;6.00;;
18425;SDS011;9340;48.756;9.226;2022-12-07T07:11:40;8.93;;;6.60;;
18425;SDS011;9340;48.756;9.226;2022-12-07T07:14:07;10.43;;;6.83;;
18425;SDS011;9340;48.756;9.226;2022-12-07T07:16:34;6.63;;;5.60;;
18425;SDS011;9340;48.756;9.226;2022-12-07T07:19:01;7.43;;;6.37;;
18425;SDS011;9340;48.756;9.226;2022-12-07T07:21:28;11.97;;;6.30;;
18425;SDS011;9340;48.756;9.226;2022-12-07T07:23:54;6.57;;;5.80;;
18425;SDS011;9340;48.756;9.226;2022-12-07T07:26:23;7.70;;;5.50;;
18425;SDS011;9340;48.756;9.226;2022-12-07T07:28:50;6.83;;;5.40;;
18425;SDS011;9340;48.756;9.226;2022-12-07T07:31:17;5.80;;;5.20;;
18425;SDS011;9340;48.756;9.226;2022-12-07T07:33:44;6.00;;;5.40;;
18425;SDS011;9340;48.756;9.226;2022-12-07T07:36:11;6.87;;;6.17;;
18425;SDS011;9340;48.756;9.226;2022-12-07T07:38:38;8.13;;;6.40;;
18425;SDS011;9340;48.756;9.226;2022-12-07T07:41:05;6.13;;;5.37;;
18425;SDS011;9340;48.756;9.226;2022-12-07T07:43:33;6.67;;;5.20;;
18425;SDS011;9340;48.756;9.226;2022-12-07T07:46:00;6.87;;;5.67;;
18425;SDS011;9340;48.756;9.226;2022-12-07T07:48:27;6.50;;;5.40;;
18425;SDS011;9340;48.756;9.226;2022-12-07T07:50:54;4.83;;;4.33;;
18425;SDS011;9340;48.756;9.226;2022-12-07T07:53:21;6.33;;;5.50;;
18425;SDS011;9340;48.756;9.226;2022-12-07T07:55:51;6.73;;;5.37;;
18425;SDS011;9340;48.756;9.226;2022-12-07T07:58:19;7.73;;;4.97;;
18425;SDS011;9340;48.756;9.226;2022-12-07T08:00:48;6.37;;;5.53;;
18425;SDS011;9340;48.756;9.226;2022-12-07T08:03:15;6.10;;;5.07;;
18425;SDS011;9340;48.756;9.226;2022-12-07T08:05:42;7.13;;;6.00;;
18425;SDS011;9340;48.756;9.226;2022-12-07T08:08:09;8.33;;;6.20;;
18425;SDS011;9340;48.756;9.226;2022-12-07T08:10:36;6.03;;;5.37;;
18425;SDS011;9340;48.756;9.226;2022-12-07T08:13:03;6.90;;;5.17;;
18425;SDS011;9340;48.756;9.226;2022-12-07T08:15:40;5.33;;;4.47;;
18425;SDS011;9340;48.756;9.226;2022-12-07T08:18:09;6.23;;;5.27;;
18425;SDS011;9340;48.756;9.226;2022-12-07T08:20:37;6.83;;;5.67;;
18425;SDS011;9340;48.756;9.226;2022-12-07T08:23:04;7.03;;;6.33;;
18425;SDS011;9340;48.756;9.226;2022-12-07T08:25:31;6.27;;;5.43;;
18425;SDS011;9340;48.756;9.226;2022-12-07T08:27:58;6.43;;;5.33;;
18425;SDS011;9340;48.756;9.226;2022-12-07T08:30:26;6.13;;;4.97;;
18425;SDS011;9340;48.756;9.226;2022-12-07T08:32:54;7.63;;;5.77;;
18425;SDS011;9340;48.756;9.226;2022-12-07T08:35:23;7.17;;;6.40;;
18425;SDS011;9340;48.756;9.226;2022-12-07T08:37:51;7.50;;;5.73;;
18425;SDS011;9340;48.756;9.226;2022-12-07T08:40:18;6.47;;;5.57;;
18425;SDS011;9340;48.756;9.226;2022-12-07T08:42:48;7.03;;;5.67;;
18425;SDS011;9340;48.756;9.226;2022-12-07T08:45:15;6.37;;;5.67;;
18425;SDS011;9340;48.756;9.226;2022-12-07T08:47:44;5.83;;;4.93;;
18425;SDS011;9340;48.756;9.226;2022-12-07T08:50:13;6.37;;;5.77;;
18425;SDS011;9340;48.756;9.226;2022-12-07T08:52:41;6.47;;;5.87;;
18425;SDS011;9340;48.756;9.226;2022-12-07T08:55:09;6.77;;;5.70;;
18425;SDS011;9340;48.756;9.226;2022-12-07T08:57:37;7.03;;;6.33;;
18425;SDS011;9340;48.756;9.226;2022-12-07T09:00:05;8.23;;;6.23;;
18425;SDS011;9340;48.756;9.226;2022-12-07T09:02:33;7.03;;;6.33;;
18425;SDS011;9340;48.756;9.226;2022-12-07T09:05:00;6.73;;;6.03;;
18425;SDS011;9340;48.756;9.226;2022-12-07T09:07:27;6.47;;;5.67;;
18425;SDS011;9340;48.756;9.226;2022-12-07T09:09:59;6.80;;;6.13;;
18425;SDS011;9340;48.756;9.226;2022-12-07T09:12:26;7.93;;;6.40;;
18425;SDS011;9340;48.756;9.226;2022-12-07T09:14:53;6.60;;;5.63;;
18425;SDS011;9340;48.756;9.226;2022-12-07T09:17:20;8.53;;;6.83;;
18425;SDS011;9340;48.756;9.226;2022-12-07T09:19:46;8.53;;;5.93;;
18425;SDS011;9340;48.756;9.226;2022-12-07T09:22:13;6.23;;;5.63;;
18425;SDS011;9340;48.756;9.226;2022-12-07T09:24:40;6.23;;;5.63;;
18425;SDS011;9340;48.756;9.226;2022-12-07T09:27:09;7.63;;;6.03;;
18425;SDS011;9340;48.756;9.226;2022-12-07T09:29:36;6.53;;;5.83;;
18425;SDS011;9340;48.756;9.226;2022-12-07T09:32:03;7.40;;;5.73;;
18425;SDS011;9340;48.756;9.226;2022-12-07T09:34:31;7.23;;;6.20;;
18425;SDS011;9340;48.756;9.226;2022-12-07T09:36:58;6.90;;;6.13;;
18425;SDS011;9340;48.756;9.226;2022-12-07T09:39:28;7.87;;;5.87;;
18425;SDS011;9340;48.756;9.226;2022-12-07T09:41:56;8.00;;;6.53;;
18425;SDS011;9340;48.756;9.226;2022-12-07T09:44:26;6.83;;;5.67;;
18425;SDS011;9340;48.756;9.226;2022-12-07T09:46:54;5.60;;;5.10;;
18425;SDS011;9340;48.756;9.226;2022-12-07T09:49:22;5.63;;;4.87;;
18425;SDS011;9340;48.756;9.226;2022-12-07T09:51:59;5.23;;;4.67;;
18425;SDS011;9340;48.756;9.226;2022-12-07T09:54:28;4.00;;;3.60;;
18425;SDS011;9340;48.756;9.226;2022-12-07T09:56:58;4.23;;;3.83;;
18425;SDS011;9340;48.756;9.226;2022-12-07T09:59:26;4.33;;;3.70;;
18425;SDS011;9340;48.756;9.226;2022-12-07T10:01:53;3.90;;;3.50;;
18425;SDS011;9340;48.756;9.226;2022-12-07T10:04:22;7.23;;;4.13;;
18425;SDS011;9340;48.756;9.226;2022-12-07T10:06:51;3.80;;;3.30;;
18425;SDS011;9340;48.756;9.226;2022-12-07T10:09:19;4.80;;;3.33;;
18425;SDS011;9340;48.756;9.226;2022-12-07T10:12:01;4.00;;;3.60;;
18425;SDS011;9340;48.756;9.226;2022-12-07T10:14:32;3.87;;;3.03;;
18425;SDS011;9340;48.756;9.226;2022-12-07T10:17:01;4.63;;;3.43;;
18425;SDS011;9340;48.756;9.226;2022-12-07T10:19:29;3.13;;;2.83;;
18425;SDS011;9340;48.756;9.226;2022-12-07T10:22:02;4.13;;;3.27;;
18425;SDS011;9340;48.756;9.226;2022-12-07T10:24:37;3.80;;;3.40;;
18425;SDS011;9340;48.756;9.226;2022-12-07T10:27:09;3.87;;;3.27;;
18425;SDS011;9340;48.756;9.226;2022-12-07T10:29:48;3.77;;;3.23;;
18425;SDS011;9340;48.756;9.226;2022-12-07T10:32:31;3.33;;;3.03;;
18425;SDS011;9340;48.756;9.226;2022-12-07T10:35:17;4.63;;;3.57;;
18425;SDS011;9340;48.756;9.226;2022-12-07T10:37:48;4.30;;;3.80;;
18425;SDS011;9340;48.756;9.226;2022-12-07T10:40:26;4.07;;;3.60;;
18425;SDS011;9340;48.756;9.226;2022-12-07T10:43:03;4.03;;;3.43;;
18425;SDS011;9340;48.756;9.226;2022-12-07T10:45:34;3.50;;;3.20;;
18425;SDS011;9340;48.756;9.226;2022-12-07T10:48:08;3.30;;;3.00;;
18425;SDS011;9340;48.756;9.226;2022-12-07T10:50:45;3.97;;;3.17;;
18425;SDS011;9340;48.756;9.226;2022-12-07T10:56:18;3.60;;;2.47;;
18425;SDS011;9340;48.756;9.226;2022-12-07T10:59:01;3.90;;;3.20;;
18425;SDS011;9340;48.756;9.226;2022-12-07T11:01:45;4.23;;;3.03;;
18425;SDS011;9340;48.756;9.226;2022-12-07T11:04:21;4.40;;;2.90;;
18425;SDS011;9340;48.756;9.226;2022-12-07T11:06:57;3.10;;;2.57;;
18425;SDS011;9340;48.756;9.226;2022-12-07T11:12:29;9.37;;;3.30;;
18425;SDS011;9340;48.756;9.226;2022-12-07T11:15:12;3.30;;;3.00;;
18425;SDS011;9340;48.756;9.226;2022-12-07T11:17:48;3.87;;;3.40;;
18425;SDS011;9340;48.756;9.226;2022-12-07T11:20:28;3.67;;;3.23;;
18425;SDS011;9340;48.756;9.226;2022-12-07T11:23:04;3.47;;;3.17;;
18425;SDS011;9340;48.756;9.226;2022-12-07T11:25:40;3.20;;;2.80;;
18425;SDS011;9340;48.756;9.226;2022-12-07T11:28:16;3.67;;;2.90;;
18425;SDS011;9340;48.756;9.226;2022-12-07T11:30:57;3.00;;;2.70;;
18425;SDS011;9340;48.756;9.226;2022-12-07T11:33:35;3.73;;;3.23;;
18425;SDS011;9340;48.756;9.226;2022-12-07T11:36:12;4.20;;;3.80;;
18425;SDS011;9340;48.756;9.226;2022-12-07T11:38:53;8.77;;;3.83;;
18425;SDS011;9340;48.756;9.226;2022-12-07T11:41:24;3.23;;;2.93;;
18425;SDS011;9340;48.756;9.226;2022-12-07T11:43:56;3.37;;;3.07;;
18425;SDS011;9340;48.756;9.226;2022-12-07T11:46:29;2.93;;;2.70;;
18425;SDS011;9340;48.756;9.226;2022-12-07T11:49:23;4.30;;;2.80;;
18425;SDS011;9340;48.756;9.226;2022-12-07T11:52:04;5.53;;;3.00;;
18425;SDS011;9340;48.756;9.226;2022-12-07T11:54:36;2.63;;;2.43;;
18425;SDS011;9340;48.756;9.226;2022-12-07T11:57:09;2.77;;;2.57;;
18425;SDS011;9340;48.756;9.226;2022-12-07T11:59:45;2.80;;;2.50;;
18425;SDS011;9340;48.756;9.226;2022-12-07T12:02:16;4.73;;;3.00;;
18425;SDS011;9340;48.756;9.226;2022-12-07T12:04:51;2.80;;;2.43;;
18425;SDS011;9340;48.756;9.226;2022-12-07T12:07:25;2.47;;;2.17;;
18425;SDS011;9340;48.756;9.226;2022-12-07T12:09:54;2.90;;;2.50;;
18425;SDS011;9340;48.756;9.226;2022-12-07T12:12:39;2.73;;;2.50;;
18425;SDS011;9340;48.756;9.226;2022-12-07T12:15:20;3.30;;;2.97;;
18425;SDS011;9340;48.756;9.226;2022-12-07T12:18:00;3.33;;;3.03;;
18425;SDS011;9340;48.756;9.226;2022-12-07T12:20:40;3.33;;;2.97;;
18425;SDS011;9340;48.756;9.226;2022-12-07T12:23:13;4.97;;;4.00;;
18425;SDS011;9340;48.756;9.226;2022-12-07T12:25:45;4.30;;;3.90;;
18425;SDS011;9340;48.756;9.226;2022-12-07T12:28:22;4.17;;;3.77;;
18425;SDS011;9340;48.756;9.226;2022-12-07T12:31:07;4.30;;;3.90;;
18425;SDS011;9340;48.756;9.226;2022-12-07T12:33:37;4.07;;;3.70;;
18425;SDS011;9340;48.756;9.226;2022-12-07T12:36:18;5.17;;;4.67;;
18425;SDS011;9340;48.756;9.226;2022-12-07T12:38:49;4.60;;;4.20;;
18425;SDS011;9340;48.756;9.226;2022-12-07T12:44:38;4.53;;;4.13;;
18425;SDS011;9340;48.756;9.226;2022-12-07T12:50:27;4.40;;;4.00;;
18425;SDS011;9340;48.756;9.226;2022-12-07T12:55:58;4.90;;;4.37;;
18425;SDS011;9340;48.756;9.226;2022-12-07T12:58:47;4.53;;;4.00;;
18425;SDS011;9340;48.756;9.226;2022-12-07T13:04:17;5.20;;;4.70;;
18425;SDS011;9340;48.756;9.226;2022-12-07T13:06:53;4.80;;;4.30;;
18425;SDS011;9340;48.756;9.226;2022-12-07T13:09:23;4.90;;;4.40;;
18425;SDS011;9340;48.756;9.226;2022-12-07T13:11:56;5.10;;;4.40;;
18425;SDS011;9340;48.756;9.226;2022-12-07T13:14:44;5.00;;;3.97;;
18425;SDS011;9340;48.756;9.226;2022-12-07T13:20:43;3.80;;;3.50;;
18425;SDS011;9340;48.756;9.226;2022-12-07T13:26:12;4.40;;;4.00;;
18425;SDS011;9340;48.756;9.226;2022-12-07T13:28:43;4.20;;;3.80;;
18425;SDS011;9340;48.756;9.226;2022-12-07T13:31:13;4.47;;;4.07;;
18425;SDS011;9340;48.756;9.226;2022-12-07T13:33:57;4.73;;;3.43;;
18425;SDS011;9340;48.756;9.226;2022-12-07T13:36:25;5.87;;;4.23;;
18425;SDS011;9340;48.756;9.226;2022-12-07T13:38:55;3.90;;;3.50;;
18425;SDS011;9340;48.756;9.226;2022-12-07T13:41:24;3.80;;;3.47;;
18425;SDS011;9340;48.756;9.226;2022-12-07T13:44:02;5.47;;;4.33;;
18425;SDS011;9340;48.756;9.226;2022-12-07T13:46:43;4.30;;;3.90;;
18425;SDS011;9340;48.756;9.226;2022-12-07T13:49:16;7.23;;;4.13;;
18425;SDS011;9340;48.756;9.226;2022-12-07T13:51:46;4.63;;;4.10;;
18425;SDS011;9340;48.756;9.226;2022-12-07T13:54:14;4.27;;;3.87;;
18425;SDS011;9340;48.756;9.226;2022-12-07T13:56:43;4.07;;;3.67;;
18425;SDS011;9340;48.756;9.226;2022-12-07T13:59:13;4.53;;;3.13;;
18425;SDS011;9340;48.756;9.226;2022-12-07T14:01:43;6.03;;;4.03;;
18425;SDS011;9340;48.756;9.226;2022-12-07T14:07:01;4.43;;;4.00;;
18425;SDS011;9340;48.756;9.226;2022-12-07T14:09:56;3.97;;;3.57;;
18425;SDS011;9340;48.756;9.226;2022-12-07T14:12:26;4.10;;;3.40;;
18425;SDS011;9340;48.756;9.226;2022-12-07T14:14:54;4.67;;;3.37;;
18425;SDS011;9340;48.756;9.226;2022-12-07T14:17:23;4.23;;;3.43;;
18425;SDS011;9340;48.756;9.226;2022-12-07T14:19:51;3.93;;;3.53;;
18425;SDS011;9340;48.756;9.226;2022-12-07T14:25:18;3.90;;;3.50;;
18425;SDS011;9340;48.756;9.226;2022-12-07T14:27:50;4.57;;;4.10;;
18425;SDS011;9340;48.756;9.226;2022-12-07T14:30:21;5.67;;;3.63;;
18425;SDS011;9340;48.756;9.226;2022-12-07T14:32:50;5.90;;;3.90;;
18425;SDS011;9340;48.756;9.226;2022-12-07T14:35:19;4.77;;;3.97;;
18425;SDS011;9340;48.756;9.226;2022-12-07T14:37:46;3.60;;;3.30;;
18425;SDS011;9340;48.756;9.226;2022-12-07T14:40:16;3.97;;;3.57;;
18425;SDS011;9340;48.756;9.226;2022-12-07T14:42:44;4.23;;;3.40;;
18425;SDS011;9340;48.756;9.226;2022-12-07T14:45:16;4.37;;;3.37;;
18425;SDS011;9340;48.756;9.226;2022-12-07T14:47:44;4.10;;;3.43;;
18425;SDS011;9340;48.756;9.226;2022-12-07T14:50:13;4.30;;;3.83;;
18425;SDS011;9340;48.756;9.226;2022-12-07T14:52:41;4.00;;;3.60;;
18425;SDS011;9340;48.756;9.226;2022-12-07T14:55:13;4.07;;;3.67;;
18425;SDS011;9340;48.756;9.226;2022-12-07T14:57:43;3.10;;;2.80;;
18425;SDS011;9340;48.756;9.226;2022-12-07T15:00:13;3.90;;;3.00;;
18425;SDS011;9340;48.756;9.226;2022-12-07T15:02:43;4.00;;;3.37;;
18425;SDS011;9340;48.756;9.226;2022-12-07T15:05:10;4.10;;;3.53;;
18425;SDS011;9340;48.756;9.226;2022-12-07T15:07:37;5.00;;;3.03;;
18425;SDS011;9340;48.756;9.226;2022-12-07T15:10:04;4.20;;;3.77;;
18425;SDS011;9340;48.756;9.226;2022-12-07T15:12:35;3.57;;;3.27;;
18425;SDS011;9340;48.756;9.226;2022-12-07T15:15:02;4.67;;;4.13;;
18425;SDS011;9340;48.756;9.226;2022-12-07T15:17:30;6.73;;;3.97;;
18425;SDS011;9340;48.756;9.226;2022-12-07T15:19:57;7.10;;;4.57;;
18425;SDS011;9340;48.756;9.226;2022-12-07T15:22:24;4.10;;;3.80;;
18425;SDS011;9340;48.756;9.226;2022-12-07T15:24:51;3.50;;;3.17;;
18425;SDS011;9340;48.756;9.226;2022-12-07T15:27:18;4.00;;;3.60;;
18425;SDS011;9340;48.756;9.226;2022-12-07T15:29:45;4.43;;;3.50;;
18425;SDS011;9340;48.756;9.226;2022-12-07T15:32:12;3.40;;;3.10;;
18425;SDS011;9340;48.756;9.226;2022-12-07T15:34:40;4.33;;;3.93;;
18425;SDS011;9340;48.756;9.226;2022-12-07T15:37:07;3.90;;;3.53;;
18425;SDS011;9340;48.756;9.226;2022-12-07T15:39:35;8.07;;;4.87;;
18425;SDS011;9340;48.756;9.226;2022-12-07T15:42:02;4.57;;;4.07;;
18425;SDS011;9340;48.756;9.226;2022-12-07T15:44:29;4.43;;;4.03;;
18425;SDS011;9340;48.756;9.226;2022-12-07T15:47:13;5.27;;;4.20;;
18425;SDS011;9340;48.756;9.226;2022-12-07T15:49:42;5.10;;;4.60;;
18425;SDS011;9340;48.756;9.226;2022-12-07T15:52:09;5.10;;;4.43;;
18425;SDS011;9340;48.756;9.226;2022-12-07T15:54:36;5.07;;;4.57;;